createdAt,value
2022-11-25T00:01:24.812Z,2.80
2022-11-25T00:03:54.780Z,4.20
2022-11-25T00:06:24.436Z,2.90
2022-11-25T00:08:55.760Z,3.50
2022-11-25T00:13:49.957Z,3.50
2022-11-25T00:16:20.299Z,3.80
2022-11-25T00:18:52.627Z,4.50
2022-11-25T00:21:23.560Z,5.30
2022-11-25T00:23:56.151Z,4.50
2022-11-25T00:26:25.241Z,3.90
2022-11-25T00:28:53.037Z,4.00
2022-11-25T00:31:26.726Z,3.40
2022-11-25T00:33:53.636Z,3.00
2022-11-25T00:36:37.129Z,3.20
2022-11-25T00:39:12.057Z,2.60
2022-11-25T00:41:58.004Z,3.40
2022-11-25T00:44:39.161Z,2.80
2022-11-25T00:47:13.532Z,3.00
2022-11-25T00:49:46.397Z,3.80
2022-11-25T00:52:22.573Z,3.10
2022-11-25T00:54:50.465Z,2.90
2022-11-25T00:57:20.447Z,2.50
2022-11-25T00:59:47.643Z,2.70
2022-11-25T01:02:16.191Z,3.30
2022-11-25T01:04:42.875Z,2.50
2022-11-25T01:07:09.618Z,2.60
2022-11-25T01:09:36.986Z,2.90
2022-11-25T01:12:04.587Z,3.00
2022-11-25T01:14:31.624Z,2.40
2022-11-25T01:16:58.551Z,2.70
2022-11-25T01:19:26.987Z,2.40
2022-11-25T01:21:53.781Z,2.30
2022-11-25T01:24:20.559Z,2.50
2022-11-25T01:26:47.207Z,2.10
2022-11-25T01:29:18.430Z,3.00
2022-11-25T01:31:46.346Z,2.60
2022-11-25T01:34:20.065Z,2.10
2022-11-25T01:36:47.408Z,3.50
2022-11-25T01:39:33.325Z,3.30
2022-11-25T01:42:01.401Z,2.10
2022-11-25T01:44:30.920Z,2.20
2022-11-25T01:47:12.576Z,2.70
2022-11-25T01:49:49.685Z,1.90
2022-11-25T01:52:24.722Z,2.20
2022-11-25T01:55:09.043Z,2.50
2022-11-25T01:57:43.848Z,2.90
2022-11-25T02:00:11.504Z,2.30
2022-11-25T02:02:38.163Z,2.40
2022-11-25T02:05:13.199Z,3.10
2022-11-25T02:07:43.965Z,2.40
2022-11-25T02:10:21.260Z,2.70
2022-11-25T02:12:48.527Z,2.00
2022-11-25T02:15:15.836Z,2.00
2022-11-25T02:17:43.893Z,2.20
2022-11-25T02:20:13.855Z,3.50
2022-11-25T02:22:57.614Z,2.10
2022-11-25T02:25:28.664Z,2.10
2022-11-25T02:28:27.043Z,2.20
2022-11-25T02:30:53.971Z,3.00
2022-11-25T02:33:21.074Z,2.00
2022-11-25T02:35:52.259Z,2.40
2022-11-25T02:38:26.475Z,2.30
2022-11-25T02:41:11.572Z,2.60
2022-11-25T02:43:39.210Z,2.80
2022-11-25T02:46:20.354Z,2.30
2022-11-25T02:51:39.465Z,2.40
2022-11-25T02:54:06.859Z,2.00
2022-11-25T02:56:35.227Z,2.30
2022-11-25T02:59:03.558Z,2.30
2022-11-25T03:01:31.482Z,2.00
2022-11-25T03:03:58.785Z,2.40
2022-11-25T03:06:26.524Z,2.10
2022-11-25T03:08:53.210Z,2.40
2022-11-25T03:11:19.872Z,2.90
2022-11-25T03:13:46.541Z,2.70
2022-11-25T03:16:13.296Z,2.70
2022-11-25T03:18:39.978Z,2.20
2022-11-25T03:21:06.904Z,2.00
2022-11-25T03:23:33.632Z,2.20
2022-11-25T03:26:05.490Z,2.60
2022-11-25T03:28:32.177Z,2.40
2022-11-25T03:30:58.804Z,3.00
2022-11-25T03:33:25.438Z,3.30
2022-11-25T03:35:52.129Z,2.50
2022-11-25T03:38:18.766Z,2.50
2022-11-25T03:40:47.235Z,2.70
2022-11-25T03:43:13.930Z,2.30
2022-11-25T03:45:40.631Z,2.60
2022-11-25T03:48:07.329Z,2.90
2022-11-25T03:50:34.008Z,2.60
2022-11-25T03:53:00.669Z,2.50
2022-11-25T03:55:27.340Z,2.90
2022-11-25T03:57:53.973Z,2.20
2022-11-25T04:00:20.685Z,2.30
2022-11-25T04:02:47.378Z,2.70
2022-11-25T04:05:14.245Z,2.30
2022-11-25T04:07:40.993Z,2.30
2022-11-25T04:10:08.765Z,2.10
2022-11-25T04:12:47.757Z,3.40
2022-11-25T04:15:16.760Z,2.90
2022-11-25T04:17:43.585Z,2.80
2022-11-25T04:20:12.209Z,3.20
2022-11-25T04:22:39.222Z,2.70
2022-11-25T04:25:07.155Z,3.60
2022-11-25T04:27:33.836Z,2.30
2022-11-25T04:30:00.565Z,2.40
2022-11-25T04:32:27.517Z,2.40
2022-11-25T04:34:54.242Z,3.10
2022-11-25T04:37:21.072Z,3.30
2022-11-25T04:39:47.939Z,3.00
2022-11-25T04:42:33.656Z,2.50
2022-11-25T04:47:50.639Z,2.80
2022-11-25T04:50:21.308Z,2.60
2022-11-25T04:52:47.987Z,2.90
2022-11-25T04:55:14.869Z,2.70
2022-11-25T04:57:41.521Z,2.60
2022-11-25T05:00:09.412Z,3.00
2022-11-25T05:02:36.479Z,2.90
2022-11-25T05:05:04.300Z,2.80
2022-11-25T05:07:31.131Z,3.20
2022-11-25T05:09:58.106Z,2.80
2022-11-25T05:12:27.429Z,3.30
2022-11-25T05:14:54.970Z,3.10
2022-11-25T05:17:28.279Z,3.00
2022-11-25T05:19:55.224Z,3.10
2022-11-25T05:22:26.171Z,2.90
2022-11-25T05:24:53.585Z,2.50
2022-11-25T05:27:21.455Z,4.00
2022-11-25T05:29:54.316Z,2.80
2022-11-25T05:32:23.150Z,3.40
2022-11-25T05:34:52.476Z,3.80
2022-11-25T05:37:24.179Z,3.80
2022-11-25T05:39:51.439Z,3.70
2022-11-25T05:42:18.207Z,3.20
2022-11-25T05:44:44.867Z,3.30
2022-11-25T05:47:11.575Z,3.60
2022-11-25T05:49:38.183Z,3.00
2022-11-25T05:52:05.064Z,3.90
2022-11-25T05:54:31.742Z,3.50
2022-11-25T05:56:58.355Z,3.40
2022-11-25T05:59:25.017Z,3.20
2022-11-25T06:01:54.510Z,3.20
2022-11-25T06:04:21.320Z,3.40
2022-11-25T06:06:47.984Z,3.90
2022-11-25T06:09:14.604Z,3.60
2022-11-25T06:11:41.226Z,2.80
2022-11-25T06:14:07.920Z,3.20
2022-11-25T06:16:34.636Z,4.50
2022-11-25T06:19:05.952Z,3.30
2022-11-25T06:21:33.372Z,3.30
2022-11-25T06:24:00.675Z,4.20
2022-11-25T06:26:27.451Z,3.30
2022-11-25T06:28:55.737Z,3.30
2022-11-25T06:31:26.037Z,2.90
2022-11-25T06:33:53.969Z,3.30
2022-11-25T06:36:22.176Z,3.60
2022-11-25T06:38:52.351Z,3.80
2022-11-25T06:41:20.763Z,4.20
2022-11-25T06:43:47.423Z,3.50
2022-11-25T06:46:21.366Z,3.70
2022-11-25T06:48:53.240Z,3.70
2022-11-25T06:51:20.536Z,3.80
2022-11-25T06:53:47.344Z,3.70
2022-11-25T06:56:16.717Z,3.30
2022-11-25T06:58:45.326Z,3.70
2022-11-25T07:01:14.785Z,3.30
2022-11-25T07:03:43.418Z,3.70
2022-11-25T07:06:13.052Z,2.70
2022-11-25T07:08:40.655Z,3.50
2022-11-25T07:11:33.051Z,3.60
2022-11-25T07:14:03.593Z,3.00
2022-11-25T07:16:31.552Z,3.30
2022-11-25T07:19:01.329Z,4.40
2022-11-25T07:21:30.048Z,3.60
2022-11-25T07:24:00.339Z,4.20
2022-11-25T07:26:34.110Z,3.70
2022-11-25T07:29:13.920Z,4.40
2022-11-25T07:31:50.196Z,3.70
2022-11-25T07:34:20.273Z,3.60
2022-11-25T07:36:49.432Z,3.40
2022-11-25T07:39:20.090Z,3.70
2022-11-25T07:41:52.111Z,3.70
2022-11-25T07:44:19.866Z,3.30
2022-11-25T07:46:49.005Z,4.00
2022-11-25T07:49:20.054Z,4.00
2022-11-25T07:51:54.175Z,4.10
2022-11-25T07:54:22.676Z,4.20
2022-11-25T07:56:50.159Z,4.70
2022-11-25T07:59:20.709Z,4.30
2022-11-25T08:01:54.785Z,4.60
2022-11-25T08:04:22.871Z,4.10
2022-11-25T08:06:52.921Z,5.00
2022-11-25T08:09:22.929Z,5.00
2022-11-25T08:11:50.414Z,5.20
2022-11-25T08:14:17.518Z,5.00
2022-11-25T08:16:44.852Z,5.20
2022-11-25T08:19:15.688Z,4.40
2022-11-25T08:21:42.930Z,4.80
2022-11-25T08:24:19.968Z,4.40
2022-11-25T08:26:47.843Z,4.50
2022-11-25T08:29:17.254Z,4.20
2022-11-25T08:31:44.076Z,4.70
2022-11-25T08:34:20.597Z,4.90
2022-11-25T08:36:48.765Z,4.40
2022-11-25T08:39:44.212Z,5.80
2022-11-25T08:42:05.950Z,5.10
2022-11-25T08:44:33.016Z,4.20
2022-11-25T08:47:00.146Z,5.40
2022-11-25T08:49:29.571Z,5.50
2022-11-25T08:51:56.521Z,4.50
2022-11-25T08:54:23.130Z,4.40
2022-11-25T08:56:49.811Z,5.10
2022-11-25T08:59:16.517Z,4.50
2022-11-25T09:01:43.491Z,4.60
2022-11-25T09:04:10.723Z,5.00
2022-11-25T09:06:38.461Z,5.60
2022-11-25T09:09:05.424Z,5.00
2022-11-25T09:11:32.321Z,5.60
2022-11-25T09:13:59.191Z,5.00
2022-11-25T09:16:27.020Z,5.10
2022-11-25T09:18:56.354Z,6.90
2022-11-25T09:21:24.122Z,5.90
2022-11-25T09:23:53.310Z,4.50
2022-11-25T09:26:31.066Z,4.20
2022-11-25T09:28:57.899Z,4.10
2022-11-25T09:31:24.686Z,3.60
2022-11-25T09:33:51.501Z,3.80
2022-11-25T09:36:20.431Z,4.20
2022-11-25T09:38:47.388Z,3.20
2022-11-25T09:41:51.552Z,3.60
2022-11-25T09:45:34.714Z,4.00
2022-11-25T09:48:40.429Z,3.70
2022-11-25T09:51:38.607Z,3.80
2022-11-25T09:54:35.478Z,3.80
2022-11-25T09:57:36.186Z,4.60
2022-11-25T10:00:21.670Z,4.00
2022-11-25T10:03:16.620Z,3.40
2022-11-25T10:05:57.034Z,3.30
2022-11-25T10:08:33.208Z,4.30
2022-11-25T10:11:14.305Z,3.80
2022-11-25T10:14:09.230Z,3.80
2022-11-25T10:16:51.843Z,4.10
2022-11-25T10:19:36.445Z,4.10
2022-11-25T10:22:32.809Z,3.10
2022-11-25T10:25:15.483Z,3.60
2022-11-25T10:28:20.098Z,3.00
2022-11-25T10:31:14.679Z,3.10
2022-11-25T10:33:48.370Z,3.10
2022-11-25T10:36:30.499Z,3.30
2022-11-25T10:39:10.960Z,3.30
2022-11-25T10:42:04.119Z,3.40
2022-11-25T10:44:37.864Z,3.50
2022-11-25T10:47:34.847Z,3.00
2022-11-25T10:50:20.028Z,2.90
2022-11-25T10:53:10.036Z,3.10
2022-11-25T10:55:37.348Z,3.90
2022-11-25T10:58:29.469Z,3.30
2022-11-25T11:01:24.770Z,3.50
2022-11-25T11:04:03.658Z,3.00
2022-11-25T11:06:43.628Z,3.10
2022-11-25T11:09:31.993Z,3.60
2022-11-25T11:12:21.169Z,3.00
2022-11-25T11:14:48.712Z,2.80
2022-11-25T11:17:35.991Z,2.90
2022-11-25T11:20:06.556Z,2.90
2022-11-25T11:22:46.225Z,3.20
2022-11-25T11:25:18.718Z,3.00
2022-11-25T11:27:46.860Z,3.30
2022-11-25T11:30:20.522Z,3.40
2022-11-25T11:33:06.526Z,3.00
2022-11-25T11:35:50.662Z,3.90
2022-11-25T11:38:31.160Z,3.80
2022-11-25T11:41:22.483Z,3.50
2022-11-25T11:46:51.631Z,3.30
2022-11-25T11:49:56.786Z,3.30
2022-11-25T11:52:50.352Z,2.90
2022-11-25T11:55:24.809Z,2.90
2022-11-25T11:58:17.513Z,3.80
2022-11-25T12:01:02.392Z,3.10
2022-11-25T12:03:40.005Z,2.90
2022-11-25T12:06:10.162Z,3.30
2022-11-25T12:08:55.645Z,3.30
2022-11-25T12:11:35.060Z,3.00
2022-11-25T12:14:32.161Z,3.40
2022-11-25T12:17:02.862Z,3.40
2022-11-25T12:20:05.820Z,4.00
2022-11-25T12:22:43.835Z,3.30
2022-11-25T12:25:21.050Z,3.40
2022-11-25T12:28:17.986Z,3.10
2022-11-25T12:31:06.467Z,2.80
2022-11-25T12:33:52.519Z,2.90
2022-11-25T12:36:33.616Z,3.70
2022-11-25T12:39:24.806Z,3.60
2022-11-25T12:42:01.771Z,2.90
2022-11-25T12:44:45.838Z,2.70
2022-11-25T12:47:12.485Z,2.70
2022-11-25T12:49:48.201Z,3.00
2022-11-25T12:52:35.754Z,2.70
2022-11-25T12:55:07.604Z,3.20
2022-11-25T12:58:17.606Z,3.00
2022-11-25T13:01:06.430Z,2.30
2022-11-25T13:03:58.603Z,2.40
2022-11-25T13:06:41.175Z,2.50
2022-11-25T13:09:44.780Z,2.60
2022-11-25T13:12:45.849Z,2.70
2022-11-25T13:15:51.665Z,2.70
2022-11-25T13:18:28.703Z,2.90
2022-11-25T13:21:04.925Z,2.60
2022-11-25T13:23:49.332Z,2.40
2022-11-25T13:26:33.376Z,2.30
2022-11-25T13:29:06.334Z,2.60
2022-11-25T13:31:58.918Z,2.80
2022-11-25T13:34:32.823Z,2.50
2022-11-25T13:37:12.041Z,2.80
2022-11-25T13:39:38.932Z,2.80
2022-11-25T13:42:27.192Z,2.70
2022-11-25T13:44:58.882Z,3.20
2022-11-25T13:47:37.751Z,2.90
2022-11-25T13:50:36.798Z,2.60
2022-11-25T13:53:33.218Z,2.80
2022-11-25T13:56:35.717Z,3.00
2022-11-25T13:59:11.346Z,2.70
2022-11-25T14:02:18.900Z,2.80
2022-11-25T14:04:51.798Z,2.20
2022-11-25T14:07:56.274Z,2.70
2022-11-25T14:11:04.897Z,3.60
2022-11-25T14:13:57.230Z,2.90
2022-11-25T14:16:59.372Z,3.60
2022-11-25T14:20:15.950Z,2.90
2022-11-25T14:23:43.100Z,2.50
2022-11-25T14:26:47.757Z,2.30
2022-11-25T14:29:13.118Z,2.20
2022-11-25T14:31:47.572Z,2.90
2022-11-25T14:34:27.427Z,2.30
2022-11-25T14:37:00.454Z,2.50
2022-11-25T14:39:37.225Z,2.80
2022-11-25T14:42:16.835Z,2.10
2022-11-25T14:44:57.824Z,2.50
2022-11-25T14:47:28.244Z,2.90
2022-11-25T14:50:19.233Z,2.70
2022-11-25T14:52:47.030Z,2.50
2022-11-25T14:55:30.835Z,2.50
2022-11-25T14:57:57.840Z,2.80
2022-11-25T15:00:24.850Z,2.60
2022-11-25T15:03:01.180Z,2.60
2022-11-25T15:05:38.151Z,3.00
2022-11-25T15:08:17.382Z,3.00
2022-11-25T15:10:56.969Z,2.60
2022-11-25T15:13:38.604Z,2.90
2022-11-25T15:16:25.655Z,3.10
2022-11-25T15:18:57.666Z,2.80
2022-11-25T15:21:29.837Z,2.70
2022-11-25T15:23:57.420Z,2.50
2022-11-25T15:26:27.836Z,2.20
2022-11-25T15:29:00.447Z,2.80
2022-11-25T15:31:33.692Z,3.30
2022-11-25T15:34:04.238Z,2.50
2022-11-25T15:36:31.243Z,2.90
2022-11-25T15:39:25.521Z,2.50
2022-11-25T15:42:07.871Z,2.10
2022-11-25T15:44:49.560Z,3.00
2022-11-25T15:47:44.026Z,2.70
2022-11-25T15:50:24.880Z,2.50
2022-11-25T15:52:56.635Z,2.50
2022-11-25T15:55:35.768Z,2.70
2022-11-25T15:58:17.173Z,2.60
2022-11-25T16:03:34.725Z,3.10
2022-11-25T16:06:02.429Z,2.50
2022-11-25T16:08:36.594Z,2.20
2022-11-25T16:11:18.049Z,2.80
2022-11-25T16:16:23.146Z,2.90
2022-11-25T16:19:01.867Z,2.80
2022-11-25T16:21:34.461Z,2.40
2022-11-25T16:24:23.848Z,2.60
2022-11-25T16:27:19.701Z,2.40
2022-11-25T16:30:06.115Z,2.50
2022-11-25T16:32:33.439Z,3.00
2022-11-25T16:35:26.484Z,2.80
2022-11-25T16:37:57.509Z,3.40
2022-11-25T16:40:26.574Z,3.40
2022-11-25T16:42:53.498Z,2.60
2022-11-25T16:45:25.095Z,3.30
2022-11-25T16:47:51.906Z,3.00
2022-11-25T16:50:20.539Z,4.30
2022-11-25T16:52:47.292Z,3.30
2022-11-25T16:55:14.148Z,3.20
2022-11-25T16:57:41.976Z,2.90
2022-11-25T17:00:16.201Z,2.70
2022-11-25T17:02:44.104Z,2.90
2022-11-25T17:05:23.635Z,3.80
2022-11-25T17:07:51.035Z,3.70
2022-11-25T17:10:19.701Z,2.90
2022-11-25T17:12:47.344Z,2.80
2022-11-25T17:15:19.518Z,3.20
2022-11-25T17:17:47.412Z,3.10
2022-11-25T17:20:17.279Z,3.70
2022-11-25T17:22:44.189Z,4.20
2022-11-25T17:25:12.609Z,3.70
2022-11-25T17:27:40.859Z,4.50
2022-11-25T17:30:17.948Z,2.80
2022-11-25T17:32:45.877Z,3.70
2022-11-25T17:35:20.411Z,3.90
2022-11-25T17:37:47.708Z,3.10
2022-11-25T17:40:14.981Z,3.00
2022-11-25T17:42:42.664Z,3.70
2022-11-25T17:45:17.123Z,4.00
2022-11-25T17:47:44.254Z,4.10
2022-11-25T17:50:22.730Z,4.40
2022-11-25T17:52:49.854Z,3.60
2022-11-25T17:55:19.052Z,3.60
2022-11-25T17:57:50.627Z,3.60
2022-11-25T18:00:21.301Z,3.40
2022-11-25T18:02:48.931Z,3.60
2022-11-25T18:05:22.363Z,3.90
2022-11-25T18:07:50.397Z,3.70
2022-11-25T18:10:21.271Z,3.60
2022-11-25T18:12:51.149Z,3.70
2022-11-25T18:15:22.940Z,3.40
2022-11-25T18:17:52.853Z,3.70
2022-11-25T18:20:24.813Z,3.30
2022-11-25T18:22:53.105Z,4.70
2022-11-25T18:25:24.322Z,3.70
2022-11-25T18:27:55.531Z,4.60
2022-11-25T18:30:30.661Z,4.10
2022-11-25T18:32:57.801Z,5.20
2022-11-25T18:35:34.185Z,3.60
2022-11-25T18:38:03.173Z,4.10
2022-11-25T18:40:30.412Z,4.10
2022-11-25T18:43:01.095Z,4.40
2022-11-25T18:45:33.572Z,4.90
2022-11-25T18:48:00.349Z,4.00
2022-11-25T18:50:27.715Z,5.00
2022-11-25T18:52:54.478Z,4.40
2022-11-25T18:55:22.615Z,3.80
2022-11-25T18:57:51.195Z,3.80
2022-11-25T19:00:32.130Z,4.10
2022-11-25T19:02:59.768Z,5.40
2022-11-25T19:05:33.168Z,3.90
2022-11-25T19:08:00.464Z,4.20
2022-11-25T19:10:31.348Z,4.70
2022-11-25T19:13:03.096Z,4.80
2022-11-25T19:15:29.945Z,4.10
2022-11-25T19:18:01.022Z,4.50
2022-11-25T19:20:29.447Z,5.10
2022-11-25T19:23:00.553Z,5.60
2022-11-25T19:25:28.394Z,5.20
2022-11-25T19:27:58.428Z,5.60
2022-11-25T19:30:30.443Z,5.70
2022-11-25T19:32:59.565Z,5.90
2022-11-25T19:35:33.024Z,5.00
2022-11-25T19:37:59.697Z,6.50
2022-11-25T19:40:28.954Z,6.60
2022-11-25T19:42:55.579Z,5.40
2022-11-25T19:45:22.714Z,6.00
2022-11-25T19:47:51.170Z,6.50
2022-11-25T19:50:27.233Z,6.20
2022-11-25T19:52:54.149Z,6.20
2022-11-25T19:55:31.641Z,5.90
2022-11-25T19:57:58.884Z,5.80
2022-11-25T20:00:26.221Z,5.80
2022-11-25T20:02:54.557Z,5.90
2022-11-25T20:05:33.914Z,6.10
2022-11-25T20:08:01.067Z,5.50
2022-11-25T20:10:31.338Z,5.30
2022-11-25T20:12:59.074Z,6.10
2022-11-25T20:15:26.270Z,5.30
2022-11-25T20:17:58.078Z,5.80
2022-11-25T20:20:31.873Z,6.50
2022-11-25T20:23:08.076Z,5.30
2022-11-25T20:25:44.495Z,5.50
2022-11-25T20:28:25.619Z,5.50
2022-11-25T20:30:53.348Z,4.90
2022-11-25T20:33:24.369Z,5.90
2022-11-25T20:35:59.240Z,5.90
2022-11-25T20:38:28.604Z,6.30
2022-11-25T20:40:58.428Z,5.50
2022-11-25T20:43:40.597Z,5.60
2022-11-25T20:46:22.686Z,5.90
2022-11-25T20:49:26.831Z,7.30
2022-11-25T20:51:55.344Z,6.10
2022-11-25T20:54:24.888Z,7.50
2022-11-25T20:56:51.876Z,6.10
2022-11-25T20:59:23.325Z,7.30
2022-11-25T21:04:17.638Z,6.60
2022-11-25T21:06:44.893Z,6.00
2022-11-25T21:09:20.182Z,7.40
2022-11-25T21:11:47.382Z,7.50
2022-11-25T21:14:19.123Z,5.90
2022-11-25T21:16:47.033Z,6.10
2022-11-25T21:19:13.759Z,5.70
2022-11-25T21:21:44.200Z,6.10
2022-11-25T21:24:27.739Z,7.20
2022-11-25T21:27:00.734Z,6.00
2022-11-25T21:29:27.999Z,7.30
2022-11-25T21:31:54.916Z,7.10
2022-11-25T21:34:21.825Z,7.10
2022-11-25T21:36:51.616Z,8.10
2022-11-25T21:39:27.060Z,7.00
2022-11-25T21:41:55.230Z,7.90
2022-11-25T21:44:38.452Z,7.70
2022-11-25T21:47:31.985Z,6.80
2022-11-25T21:49:58.762Z,7.10
2022-11-25T21:52:25.382Z,6.90
2022-11-25T21:54:52.863Z,7.80
2022-11-25T21:57:27.296Z,7.70
2022-11-25T21:59:57.469Z,8.10
2022-11-25T22:02:41.380Z,7.80
2022-11-25T22:05:15.413Z,8.30
2022-11-25T22:07:42.784Z,8.80
2022-11-25T22:10:12.864Z,8.40
2022-11-25T22:12:42.722Z,10.50
2022-11-25T22:15:18.586Z,10.90
2022-11-25T22:18:04.976Z,11.10
2022-11-25T22:20:42.149Z,10.40
2022-11-25T22:23:25.853Z,11.50
2022-11-25T22:25:56.723Z,10.70
2022-11-25T22:28:28.797Z,12.00
2022-11-25T22:31:10.462Z,10.90
2022-11-25T22:33:50.684Z,11.20
2022-11-25T22:36:43.555Z,12.70
2022-11-25T22:39:20.775Z,12.40
2022-11-25T22:41:56.676Z,12.40
2022-11-25T22:44:35.323Z,12.30
2022-11-25T22:47:03.520Z,12.70
2022-11-25T22:49:42.620Z,13.10
2022-11-25T22:52:19.941Z,12.10
2022-11-25T22:54:48.516Z,10.90
2022-11-25T22:57:16.658Z,11.80
2022-11-25T22:59:43.958Z,11.20
2022-11-25T23:02:19.794Z,12.80
2022-11-25T23:04:53.572Z,11.70
2022-11-25T23:07:22.517Z,12.80
2022-11-25T23:09:49.623Z,12.60
2022-11-25T23:12:17.224Z,13.30
2022-11-25T23:14:44.364Z,13.60
2022-11-25T23:17:37.488Z,11.90
2022-11-25T23:20:21.406Z,12.00
2022-11-25T23:22:48.718Z,13.40
2022-11-25T23:25:19.344Z,14.10
2022-11-25T23:27:46.512Z,11.80
2022-11-25T23:30:22.510Z,12.80
2022-11-25T23:32:52.077Z,11.70
2022-11-25T23:35:36.476Z,12.50
2022-11-25T23:38:07.120Z,12.20
2022-11-25T23:40:34.015Z,12.60
2022-11-25T23:43:02.281Z,12.00
2022-11-25T23:45:29.033Z,11.50
2022-11-25T23:47:56.285Z,11.80
2022-11-25T23:50:29.554Z,12.40
2022-11-25T23:53:02.133Z,11.40
2022-11-25T23:55:34.552Z,11.10
2022-11-25T23:58:05.786Z,11.90
